createdAt,value
2018-12-18T00:02:17.197Z,13.67
2018-12-18T00:04:45.403Z,16.03
2018-12-18T00:07:13.667Z,14.50
2018-12-18T00:09:41.933Z,14.73
2018-12-18T00:12:10.181Z,13.37
2018-12-18T00:14:39.266Z,13.40
2018-12-18T00:17:07.766Z,14.30
2018-12-18T00:19:35.988Z,13.53
2018-12-18T00:22:05.118Z,13.37
2018-12-18T00:24:33.335Z,13.23
2018-12-18T00:27:01.573Z,15.07
2018-12-18T00:29:29.829Z,13.63
2018-12-18T00:31:58.052Z,13.77
2018-12-18T00:34:26.260Z,16.87
2018-12-18T00:36:54.501Z,14.33
2018-12-18T00:39:22.726Z,15.10
2018-12-18T00:41:52.953Z,13.43
2018-12-18T00:44:21.172Z,13.67
2018-12-18T00:46:49.427Z,15.30
2018-12-18T00:49:17.666Z,17.40
2018-12-18T00:51:45.867Z,15.00
2018-12-18T00:54:15.193Z,15.43
2018-12-18T00:56:43.410Z,15.60
2018-12-18T00:59:11.698Z,14.63
2018-12-18T01:01:39.934Z,14.20
2018-12-18T01:04:08.149Z,15.40
2018-12-18T01:06:36.369Z,15.43
2018-12-18T01:09:06.265Z,14.70
2018-12-18T01:11:34.568Z,15.53
2018-12-18T01:14:02.806Z,15.03
2018-12-18T01:16:31.034Z,13.73
2018-12-18T01:18:59.274Z,15.53
2018-12-18T01:21:27.533Z,14.50
2018-12-18T01:23:55.740Z,13.77
2018-12-18T01:26:24.000Z,15.07
2018-12-18T01:28:52.233Z,14.57
2018-12-18T01:31:20.524Z,13.33
2018-12-18T01:33:48.761Z,16.07
2018-12-18T01:36:17.106Z,14.50
2018-12-18T01:38:45.343Z,14.33
2018-12-18T01:41:13.556Z,13.93
2018-12-18T01:43:41.756Z,15.27
2018-12-18T01:46:09.981Z,16.87
2018-12-18T01:48:38.218Z,14.77
2018-12-18T01:51:06.428Z,15.87
2018-12-18T01:53:34.638Z,15.97
2018-12-18T01:56:02.837Z,14.07
2018-12-18T01:58:31.037Z,15.47
2018-12-18T02:00:59.391Z,14.87
2018-12-18T02:03:27.631Z,16.53
2018-12-18T02:05:55.882Z,15.70
2018-12-18T02:08:24.220Z,13.70
2018-12-18T02:10:52.506Z,15.17
2018-12-18T02:13:20.878Z,15.70
2018-12-18T02:15:49.082Z,16.33
2018-12-18T02:18:17.288Z,15.03
2018-12-18T02:20:45.529Z,15.80
2018-12-18T02:23:13.847Z,15.50
2018-12-18T02:25:42.050Z,16.20
2018-12-18T02:28:10.297Z,16.73
2018-12-18T02:30:38.508Z,17.30
2018-12-18T02:33:06.813Z,16.60
2018-12-18T02:35:35.053Z,16.53
2018-12-18T02:38:03.425Z,16.27
2018-12-18T02:40:31.637Z,18.50
2018-12-18T02:42:59.883Z,16.50
2018-12-18T02:45:28.126Z,16.83
2018-12-18T02:47:56.346Z,16.37
2018-12-18T02:50:24.602Z,15.77
2018-12-18T02:52:52.841Z,16.23
2018-12-18T02:55:21.071Z,15.97
2018-12-18T02:57:49.332Z,15.90
2018-12-18T03:00:17.656Z,16.63
2018-12-18T03:02:46.035Z,16.77
2018-12-18T03:05:14.655Z,16.40
2018-12-18T03:07:42.986Z,15.57
2018-12-18T03:10:11.221Z,16.13
2018-12-18T03:12:39.430Z,14.83
2018-12-18T03:15:09.583Z,16.03
2018-12-18T03:17:37.876Z,16.67
2018-12-18T03:20:07.150Z,16.00
2018-12-18T03:22:35.467Z,16.83
2018-12-18T03:25:04.730Z,15.37
2018-12-18T03:27:33.005Z,14.80
2018-12-18T03:30:01.343Z,15.47
2018-12-18T03:32:34.582Z,15.57
2018-12-18T03:35:02.785Z,15.70
2018-12-18T03:37:31.055Z,15.53
2018-12-18T03:39:59.253Z,15.30
2018-12-18T03:42:27.535Z,14.37
2018-12-18T03:44:55.789Z,13.13
2018-12-18T03:47:24.024Z,12.67
2018-12-18T03:49:52.257Z,12.17
2018-12-18T03:52:20.530Z,13.20
2018-12-18T03:54:48.797Z,12.07
2018-12-18T03:57:17.011Z,13.07
2018-12-18T03:59:45.384Z,12.13
2018-12-18T04:02:13.863Z,13.30
2018-12-18T04:04:42.126Z,13.63
2018-12-18T04:07:10.314Z,14.37
2018-12-18T04:09:38.621Z,14.87
2018-12-18T04:12:08.458Z,13.57
2018-12-18T04:14:37.283Z,13.90
2018-12-18T04:17:05.557Z,12.83
2018-12-18T04:19:33.801Z,13.17
2018-12-18T04:22:02.011Z,15.03
2018-12-18T04:24:30.423Z,13.10
2018-12-18T04:26:58.681Z,13.13
2018-12-18T04:29:26.955Z,15.20
2018-12-18T04:31:55.273Z,13.57
2018-12-18T04:34:23.473Z,16.23
2018-12-18T04:36:51.692Z,13.30
2018-12-18T04:39:19.912Z,13.53
2018-12-18T04:41:48.284Z,13.70
2018-12-18T04:44:16.583Z,13.70
2018-12-18T04:46:44.793Z,13.00
2018-12-18T04:49:13.050Z,13.30
2018-12-18T04:51:41.284Z,13.47
2018-12-18T04:54:09.513Z,11.50
2018-12-18T04:56:37.702Z,12.17
2018-12-18T04:59:05.950Z,12.30
2018-12-18T05:01:34.143Z,12.27
2018-12-18T05:04:03.924Z,13.47
2018-12-18T05:06:32.519Z,12.83
2018-12-18T05:09:00.746Z,12.10
2018-12-18T05:11:29.056Z,13.23
2018-12-18T05:13:57.289Z,14.20
2018-12-18T05:16:25.522Z,14.43
2018-12-18T05:18:53.784Z,12.80
2018-12-18T05:21:21.989Z,11.53
2018-12-18T05:23:50.216Z,12.47
2018-12-18T05:26:18.425Z,13.27
2018-12-18T05:28:46.657Z,13.50
2018-12-18T05:31:14.862Z,12.03
2018-12-18T05:33:43.094Z,13.60
2018-12-18T05:36:11.344Z,13.37
2018-12-18T05:38:39.573Z,13.27
2018-12-18T05:41:07.821Z,12.17
2018-12-18T05:43:36.064Z,13.97
2018-12-18T05:46:04.280Z,13.03
2018-12-18T05:48:32.485Z,13.03
2018-12-18T05:51:00.709Z,13.47
2018-12-18T05:53:28.987Z,12.63
2018-12-18T05:55:57.197Z,15.27
2018-12-18T05:58:25.448Z,13.27
2018-12-18T06:00:53.722Z,13.97
2018-12-18T06:03:21.929Z,13.40
2018-12-18T06:05:50.149Z,13.67
2018-12-18T06:08:18.419Z,14.67
2018-12-18T06:10:46.670Z,13.87
2018-12-18T06:13:14.874Z,12.83
2018-12-18T06:15:43.081Z,12.80
2018-12-18T06:18:11.325Z,13.67
2018-12-18T06:20:39.732Z,12.40
2018-12-18T06:23:07.951Z,15.70
2018-12-18T06:25:36.173Z,14.37
2018-12-18T06:28:04.392Z,12.83
2018-12-18T06:30:32.640Z,13.70
2018-12-18T06:33:00.862Z,13.83
2018-12-18T06:35:29.087Z,14.53
2018-12-18T06:37:57.325Z,13.00
2018-12-18T06:40:25.606Z,16.20
2018-12-18T06:42:53.837Z,14.57
2018-12-18T06:45:22.078Z,15.27
2018-12-18T06:47:50.309Z,15.83
2018-12-18T06:50:18.543Z,14.57
2018-12-18T06:52:46.793Z,16.60
2018-12-18T06:55:15.094Z,16.77
2018-12-18T06:57:43.308Z,15.60
2018-12-18T07:00:12.404Z,16.73
2018-12-18T07:02:40.677Z,16.47
2018-12-18T07:05:08.980Z,15.57
2018-12-18T07:07:37.296Z,16.83
2018-12-18T07:10:06.392Z,16.70
2018-12-18T07:12:34.674Z,15.50
2018-12-18T07:15:03.421Z,15.53
2018-12-18T07:17:31.613Z,15.00
2018-12-18T07:19:59.855Z,15.47
2018-12-18T07:22:28.097Z,13.97
2018-12-18T07:24:56.453Z,13.87
2018-12-18T07:27:24.663Z,14.47
2018-12-18T07:29:52.916Z,14.00
2018-12-18T07:32:21.153Z,14.43
2018-12-18T07:34:49.349Z,13.77
2018-12-18T07:37:17.581Z,13.40
2018-12-18T07:39:45.805Z,13.30
2018-12-18T07:42:14.052Z,13.27
2018-12-18T07:44:42.251Z,13.87
2018-12-18T07:47:10.499Z,11.50
2018-12-18T07:49:41.669Z,12.67
2018-12-18T07:52:09.864Z,11.77
2018-12-18T07:54:38.128Z,11.23
2018-12-18T07:57:06.372Z,10.70
2018-12-18T07:59:34.593Z,10.73
2018-12-18T08:02:02.809Z,10.33
2018-12-18T08:04:31.065Z,11.50
2018-12-18T08:06:59.321Z,12.43
2018-12-18T08:09:27.525Z,10.23
2018-12-18T08:11:55.791Z,9.77
2018-12-18T08:14:24.025Z,10.10
2018-12-18T08:16:52.322Z,8.90
2018-12-18T08:19:20.539Z,8.87
2018-12-18T08:21:48.745Z,10.17
2018-12-18T08:24:16.981Z,8.97
2018-12-18T08:26:45.188Z,10.40
2018-12-18T08:29:13.449Z,8.63
2018-12-18T08:31:41.692Z,9.87
2018-12-18T08:34:09.904Z,9.77
2018-12-18T08:36:38.130Z,10.83
2018-12-18T08:39:08.876Z,10.17
2018-12-18T08:41:37.117Z,10.43
2018-12-18T08:44:05.432Z,12.30
2018-12-18T08:46:33.753Z,12.20
2018-12-18T08:49:01.987Z,11.23
2018-12-18T08:51:30.235Z,12.73
2018-12-18T08:53:58.601Z,12.80
2018-12-18T08:56:26.965Z,11.83
2018-12-18T08:58:55.194Z,12.13
2018-12-18T09:01:23.432Z,12.13
2018-12-18T09:03:51.726Z,14.00
2018-12-18T09:06:20.008Z,14.57
2018-12-18T09:08:48.345Z,13.83
2018-12-18T09:11:16.561Z,11.83
2018-12-18T09:13:44.865Z,12.23
2018-12-18T09:16:18.486Z,12.83
2018-12-18T09:18:46.728Z,14.20
2018-12-18T09:21:15.127Z,14.80
2018-12-18T09:23:43.432Z,16.10
2018-12-18T09:26:11.854Z,14.90
2018-12-18T09:28:40.141Z,14.93
2018-12-18T09:31:08.461Z,16.30
2018-12-18T09:33:37.210Z,17.27
2018-12-18T09:36:05.449Z,15.93
2018-12-18T09:38:39.149Z,17.23
2018-12-18T09:41:13.000Z,16.53
2018-12-18T09:43:46.769Z,17.90
2018-12-18T09:46:15.010Z,15.97
2018-12-18T09:48:43.255Z,17.10
2018-12-18T09:51:11.529Z,17.77
2018-12-18T09:53:39.787Z,17.80
2018-12-18T09:56:08.105Z,19.00
2018-12-18T09:58:36.360Z,17.70
2018-12-18T10:01:04.697Z,15.40
2018-12-18T10:03:33.665Z,18.40
2018-12-18T10:06:02.214Z,15.33
2018-12-18T10:08:30.489Z,14.70
2018-12-18T10:10:58.865Z,16.90
2018-12-18T10:13:27.101Z,18.63
2018-12-18T10:15:55.422Z,19.13
2018-12-18T10:18:23.628Z,17.50
2018-12-18T10:20:51.845Z,17.10
2018-12-18T10:23:20.033Z,18.93
2018-12-18T10:25:48.280Z,18.03
2018-12-18T10:28:16.493Z,16.37
2018-12-18T10:30:44.848Z,15.77
2018-12-18T10:33:13.230Z,14.27
2018-12-18T10:35:41.545Z,15.10
2018-12-18T10:38:09.839Z,16.20
2018-12-18T10:40:38.087Z,14.50
2018-12-18T10:43:06.325Z,14.07
2018-12-18T10:45:35.325Z,13.57
2018-12-18T10:48:03.662Z,14.63
2018-12-18T10:50:31.910Z,14.30
2018-12-18T10:53:00.148Z,16.10
2018-12-18T10:55:28.503Z,14.47
2018-12-18T10:57:56.779Z,14.43
2018-12-18T11:00:30.544Z,14.47
2018-12-18T11:02:58.783Z,12.67
2018-12-18T11:05:27.053Z,13.23
2018-12-18T11:07:55.402Z,13.77
2018-12-18T11:10:24.025Z,13.60
2018-12-18T11:12:57.870Z,12.53
2018-12-18T11:15:26.113Z,12.80
2018-12-18T11:17:54.337Z,12.60
2018-12-18T11:20:22.554Z,13.87
2018-12-18T11:22:50.875Z,11.57
2018-12-18T11:25:19.208Z,11.77
2018-12-18T11:27:47.477Z,11.20
2018-12-18T11:30:15.789Z,12.20
2018-12-18T11:32:44.082Z,10.47
2018-12-18T11:35:12.422Z,11.20
2018-12-18T11:37:40.720Z,11.20
2018-12-18T11:40:09.897Z,11.23
2018-12-18T11:42:38.205Z,9.83
2018-12-18T11:45:06.583Z,10.17
2018-12-18T11:47:34.831Z,11.00
2018-12-18T11:50:03.239Z,9.83
2018-12-18T11:52:31.480Z,9.20
2018-12-18T11:54:59.729Z,9.63
2018-12-18T11:57:27.966Z,10.50
2018-12-18T11:59:56.174Z,9.00
2018-12-18T12:02:24.444Z,8.00
2018-12-18T12:04:52.658Z,8.67
2018-12-18T12:07:20.933Z,8.80
2018-12-18T12:09:49.128Z,7.90
2018-12-18T12:12:17.338Z,7.83
2018-12-18T12:14:45.969Z,7.97
2018-12-18T12:17:14.250Z,8.60
2018-12-18T12:19:42.457Z,8.23
2018-12-18T12:22:10.712Z,7.67
2018-12-18T12:24:38.928Z,8.07
2018-12-18T12:27:12.630Z,6.97
2018-12-18T12:29:40.904Z,7.50
2018-12-18T12:32:09.133Z,7.40
2018-12-18T12:34:37.650Z,6.50
2018-12-18T12:37:05.869Z,8.73
2018-12-18T12:39:34.124Z,8.10
2018-12-18T12:42:02.337Z,9.33
2018-12-18T12:44:30.701Z,10.03
2018-12-18T12:46:58.906Z,8.57
2018-12-18T12:49:32.526Z,8.90
2018-12-18T12:52:00.769Z,8.50
2018-12-18T12:54:29.013Z,9.90
2018-12-18T12:56:57.262Z,9.30
2018-12-18T12:59:25.548Z,9.87
2018-12-18T13:01:53.889Z,9.47
2018-12-18T13:04:22.238Z,8.67
2018-12-18T13:06:50.583Z,7.93
2018-12-18T13:09:18.842Z,9.20
2018-12-18T13:11:47.084Z,7.47
2018-12-18T13:14:15.510Z,8.13
2018-12-18T13:16:43.856Z,7.73
2018-12-18T13:19:12.123Z,7.37
2018-12-18T13:21:40.414Z,8.17
2018-12-18T13:24:08.707Z,6.73
2018-12-18T13:26:37.001Z,6.93
2018-12-18T13:29:05.261Z,6.67
2018-12-18T13:31:33.540Z,5.70
2018-12-18T13:34:02.064Z,5.80
2018-12-18T13:36:30.518Z,5.70
2018-12-18T13:38:58.754Z,5.67
2018-12-18T13:41:27.012Z,6.53
2018-12-18T13:43:55.305Z,5.40
2018-12-18T13:46:23.549Z,5.73
2018-12-18T13:48:51.738Z,6.40
2018-12-18T13:51:20.013Z,6.53
2018-12-18T13:53:48.269Z,6.13
2018-12-18T13:56:16.549Z,7.23
2018-12-18T13:58:44.753Z,7.17
2018-12-18T14:01:13.053Z,5.57
2018-12-18T14:03:41.306Z,6.07
2018-12-18T14:06:09.597Z,5.77
2018-12-18T14:08:37.869Z,6.13
2018-12-18T14:11:06.179Z,5.97
2018-12-18T14:13:34.613Z,5.80
2018-12-18T14:16:03.443Z,4.97
2018-12-18T14:18:31.858Z,5.40
2018-12-18T14:21:00.068Z,4.27
2018-12-18T14:23:28.396Z,5.60
2018-12-18T14:25:56.624Z,5.47
2018-12-18T14:28:24.861Z,5.10
2018-12-18T14:30:53.071Z,5.10
2018-12-18T14:33:21.347Z,5.80
2018-12-18T14:35:49.700Z,5.97
2018-12-18T14:38:18.001Z,6.10
2018-12-18T14:40:46.277Z,5.67
2018-12-18T14:43:14.608Z,6.00
2018-12-18T14:45:42.863Z,5.33
2018-12-18T14:48:11.109Z,7.10
2018-12-18T14:50:39.385Z,5.87
2018-12-18T14:53:07.653Z,6.57
2018-12-18T14:55:35.929Z,6.30
2018-12-18T14:58:04.222Z,7.17
2018-12-18T15:00:32.498Z,5.60
2018-12-18T15:03:00.769Z,6.33
2018-12-18T15:05:29.183Z,6.83
2018-12-18T15:07:57.496Z,6.43
2018-12-18T15:10:26.266Z,6.13
2018-12-18T15:13:00.984Z,5.63
2018-12-18T15:15:29.261Z,5.23
2018-12-18T15:17:57.493Z,5.30
2018-12-18T15:20:25.746Z,5.10
2018-12-18T15:22:53.934Z,4.17
2018-12-18T15:25:22.215Z,3.97
2018-12-18T15:27:50.424Z,3.97
2018-12-18T15:30:18.909Z,4.53
2018-12-18T15:32:47.095Z,3.70
2018-12-18T15:35:15.525Z,3.83
2018-12-18T15:37:44.079Z,3.73
2018-12-18T15:40:12.398Z,3.10
2018-12-18T15:42:40.658Z,3.43
2018-12-18T15:45:09.171Z,3.20
2018-12-18T15:47:37.450Z,3.07
2018-12-18T15:50:07.782Z,3.90
2018-12-18T15:52:36.265Z,3.33
2018-12-18T15:55:05.401Z,3.47
2018-12-18T15:57:33.605Z,3.73
2018-12-18T16:00:01.826Z,3.37
2018-12-18T16:02:30.846Z,3.53
2018-12-18T16:04:59.066Z,3.50
2018-12-18T16:07:27.303Z,2.83
2018-12-18T16:09:55.593Z,3.63
2018-12-18T16:12:23.821Z,3.50
2018-12-18T16:14:52.109Z,3.17
2018-12-18T16:17:20.363Z,3.70
2018-12-18T16:19:48.598Z,3.53
2018-12-18T16:22:16.848Z,3.43
2018-12-18T16:24:45.105Z,4.37
2018-12-18T16:27:14.247Z,3.77
2018-12-18T16:29:42.485Z,2.80
2018-12-18T16:32:10.701Z,3.00
2018-12-18T16:34:38.950Z,2.70
2018-12-18T16:37:07.221Z,2.60
2018-12-18T16:39:35.465Z,3.30
2018-12-18T16:42:03.697Z,2.97
2018-12-18T16:44:31.978Z,2.80
2018-12-18T16:47:00.205Z,3.30
2018-12-18T16:49:28.635Z,3.20
2018-12-18T16:51:56.961Z,2.50
2018-12-18T16:54:25.594Z,3.07
2018-12-18T16:56:54.145Z,3.37
2018-12-18T16:59:22.453Z,3.30
2018-12-18T17:01:50.745Z,4.30
2018-12-18T17:04:19.013Z,3.00
2018-12-18T17:06:47.224Z,3.33
2018-12-18T17:09:15.563Z,3.13
2018-12-18T17:11:43.805Z,3.57
2018-12-18T17:14:12.025Z,3.23
2018-12-18T17:16:40.269Z,3.10
2018-12-18T17:19:08.507Z,3.23
2018-12-18T17:21:36.746Z,3.30
2018-12-18T17:24:05.020Z,3.53
2018-12-18T17:26:33.313Z,3.13
2018-12-18T17:29:01.579Z,3.27
2018-12-18T17:31:29.861Z,3.50
2018-12-18T17:33:58.130Z,4.00
2018-12-18T17:36:26.443Z,3.77
2018-12-18T17:38:54.689Z,3.23
2018-12-18T17:41:23.076Z,3.43
2018-12-18T17:43:51.742Z,3.20
2018-12-18T17:46:20.031Z,3.53
2018-12-18T17:48:48.371Z,3.07
2018-12-18T17:51:16.581Z,4.40
2018-12-18T17:53:44.828Z,3.73
2018-12-18T17:56:13.038Z,4.73
2018-12-18T17:58:41.305Z,5.27
2018-12-18T18:01:09.561Z,3.70
2018-12-18T18:03:37.853Z,4.03
2018-12-18T18:06:06.082Z,3.80
2018-12-18T18:08:34.318Z,3.77
2018-12-18T18:11:02.537Z,4.37
2018-12-18T18:13:30.745Z,3.67
2018-12-18T18:15:59.021Z,3.90
2018-12-18T18:18:27.218Z,3.30
2018-12-18T18:20:55.469Z,3.93
2018-12-18T18:23:23.665Z,3.43
2018-12-18T18:25:52.380Z,4.17
2018-12-18T18:28:20.624Z,4.10
2018-12-18T18:30:48.885Z,3.80
2018-12-18T18:33:17.142Z,3.50
2018-12-18T18:35:45.367Z,4.60
2018-12-18T18:38:13.808Z,4.00
2018-12-18T18:40:42.046Z,4.70
2018-12-18T18:43:10.257Z,4.53
2018-12-18T18:45:38.484Z,4.77
2018-12-18T18:48:06.724Z,3.57
2018-12-18T18:50:34.946Z,4.80
2018-12-18T18:53:03.224Z,4.33
2018-12-18T18:55:31.502Z,4.70
2018-12-18T18:57:59.738Z,4.53
2018-12-18T19:00:30.993Z,4.43
2018-12-18T19:02:59.490Z,3.60
2018-12-18T19:05:27.764Z,5.33
2018-12-18T19:07:56.805Z,5.00
2018-12-18T19:10:25.367Z,3.87
2018-12-18T19:12:57.884Z,4.47
2018-12-18T19:15:26.209Z,5.20
2018-12-18T19:17:54.591Z,4.83
2018-12-18T19:20:23.072Z,5.13
2018-12-18T19:22:51.354Z,4.27
2018-12-18T19:25:19.673Z,4.23
2018-12-18T19:27:48.014Z,4.13
2018-12-18T19:30:16.488Z,3.87
2018-12-18T19:32:44.866Z,4.03
2018-12-18T19:35:13.466Z,4.70
2018-12-18T19:37:41.831Z,3.70
2018-12-18T19:40:10.049Z,4.00
2018-12-18T19:42:38.560Z,4.83
2018-12-18T19:45:07.518Z,4.43
2018-12-18T19:47:35.872Z,4.00
2018-12-18T19:50:04.609Z,4.63
2018-12-18T19:52:33.112Z,4.00
2018-12-18T19:55:01.657Z,4.33
2018-12-18T19:57:29.895Z,5.40
2018-12-18T19:59:58.213Z,4.67
2018-12-18T20:02:26.451Z,4.57
2018-12-18T20:04:54.679Z,4.30
2018-12-18T20:07:22.992Z,4.77
2018-12-18T20:09:51.216Z,5.10
2018-12-18T20:12:19.493Z,4.10
2018-12-18T20:14:47.734Z,4.97
2018-12-18T20:17:16.366Z,5.37
2018-12-18T20:19:44.765Z,4.57
2018-12-18T20:22:13.066Z,4.30
2018-12-18T20:24:41.283Z,4.67
2018-12-18T20:27:09.673Z,4.57
2018-12-18T20:29:37.901Z,5.50
2018-12-18T20:32:06.257Z,4.00
2018-12-18T20:34:34.617Z,3.90
2018-12-18T20:37:02.841Z,4.00
2018-12-18T20:39:31.070Z,3.57
2018-12-18T20:41:59.361Z,5.10
2018-12-18T20:44:27.595Z,4.40
2018-12-18T20:46:55.810Z,4.03
2018-12-18T20:49:24.046Z,5.30
2018-12-18T20:51:52.291Z,4.27
2018-12-18T20:54:20.588Z,4.77
2018-12-18T20:56:48.802Z,4.70
2018-12-18T20:59:17.054Z,3.97
2018-12-18T21:01:45.311Z,4.03
2018-12-18T21:04:14.116Z,4.63
2018-12-18T21:06:42.641Z,4.57
2018-12-18T21:09:10.970Z,3.63
2018-12-18T21:11:39.321Z,3.57
2018-12-18T21:14:07.717Z,3.43
2018-12-18T21:16:36.194Z,4.93
2018-12-18T21:19:04.581Z,4.70
2018-12-18T21:21:33.136Z,3.70
2018-12-18T21:24:02.546Z,4.77
2018-12-18T21:26:31.087Z,3.80
2018-12-18T21:28:59.600Z,4.43
2018-12-18T21:31:28.110Z,4.27
2018-12-18T21:33:56.584Z,4.23
2018-12-18T21:36:26.348Z,4.83
2018-12-18T21:38:55.116Z,4.13
2018-12-18T21:41:23.924Z,5.20
2018-12-18T21:43:52.521Z,3.90
2018-12-18T21:46:21.271Z,4.77
2018-12-18T21:48:49.692Z,4.90
2018-12-18T21:51:18.287Z,5.40
2018-12-18T21:53:46.959Z,3.73
2018-12-18T21:56:15.482Z,4.73
2018-12-18T21:58:44.161Z,4.43
2018-12-18T22:01:12.654Z,5.37
2018-12-18T22:03:41.037Z,4.67
2018-12-18T22:06:09.818Z,5.57
2018-12-18T22:08:38.423Z,5.70
2018-12-18T22:11:06.882Z,5.43
2018-12-18T22:13:35.265Z,4.90
2018-12-18T22:16:04.161Z,4.60
2018-12-18T22:18:32.657Z,4.83
2018-12-18T22:21:01.416Z,5.40
2018-12-18T22:23:29.856Z,4.13
2018-12-18T22:25:58.186Z,5.70
2018-12-18T22:28:26.439Z,4.63
2018-12-18T22:30:54.666Z,4.63
2018-12-18T22:33:22.905Z,4.73
2018-12-18T22:35:51.097Z,5.00
2018-12-18T22:38:19.462Z,4.77
2018-12-18T22:40:47.653Z,4.33
2018-12-18T22:43:15.888Z,4.13
2018-12-18T22:45:44.106Z,5.23
2018-12-18T22:48:13.289Z,5.07
2018-12-18T22:50:41.766Z,4.90
2018-12-18T22:53:10.106Z,4.77
2018-12-18T22:55:44.670Z,4.27
2018-12-18T22:58:08.618Z,4.43
2018-12-18T23:00:42.310Z,5.10
2018-12-18T23:03:10.514Z,4.57
2018-12-18T23:05:38.753Z,6.10
2018-12-18T23:08:07.002Z,5.00
2018-12-18T23:10:35.265Z,5.43
2018-12-18T23:13:03.516Z,4.67
2018-12-18T23:15:31.834Z,4.67
2018-12-18T23:18:00.145Z,3.77
2018-12-18T23:20:28.384Z,5.10
2018-12-18T23:22:56.622Z,4.47
2018-12-18T23:25:26.016Z,4.70
2018-12-18T23:27:54.237Z,4.00
2018-12-18T23:30:22.481Z,5.53
2018-12-18T23:32:50.703Z,4.60
2018-12-18T23:35:18.955Z,4.07
2018-12-18T23:37:47.177Z,4.00
2018-12-18T23:40:15.529Z,3.70
2018-12-18T23:42:43.863Z,4.07
2018-12-18T23:45:12.241Z,4.90
2018-12-18T23:47:40.449Z,4.63
2018-12-18T23:50:08.705Z,4.93
2018-12-18T23:52:37.077Z,4.40
2018-12-18T23:55:05.629Z,4.00
2018-12-18T23:57:33.881Z,4.13
